Kennedale, Texas
Current Conditions -  °F | °C
As of 3:55 AM on Thursday 23 Oct 2014 (Local Time) from KFWS Reporting Station
Overcast Overcast  
Wind Chill: 65°   Ceiling: 9000
Heat Index: 65°   Visibility: 10mi
Dew Point: 55°   Wind: 3mph
Humidity: 70%   Direction: 150°SSE
Pressure: 30.12"   Gusts: NA
Location:  32.65°N, 97.23°W
Report Text: KFWS 230855Z AUTO 15003KT 10SM OVC090 19/13 A3012 RMK AO2 T01860130
Loading
Personal Weather Stations






























Interactive Weather Map
Tropical Storm Tracking
New forecast layout! Learn more

10-Day Weather Forecast

Advertisements
Track Severe Weather on mobile